sensor_id;sensor_type;location;lat;lon;timestamp;P1;durP1;ratioP1;P2;durP2;ratioP2
63005;SDS011;53704;52.532;6.426;2022-10-16T00:01:31;14.02;;;2.58;;
63005;SDS011;53704;52.532;6.426;2022-10-16T00:03:57;6.57;;;2.47;;
63005;SDS011;53704;52.532;6.426;2022-10-16T00:06:23;5.40;;;2.50;;
63005;SDS011;53704;52.532;6.426;2022-10-16T00:08:49;8.57;;;2.13;;
63005;SDS011;53704;52.532;6.426;2022-10-16T00:11:17;7.72;;;2.67;;
63005;SDS011;53704;52.532;6.426;2022-10-16T00:13:48;5.88;;;2.70;;
63005;SDS011;53704;52.532;6.426;2022-10-16T00:16:15;13.20;;;2.10;;
63005;SDS011;53704;52.532;6.426;2022-10-16T00:18:41;9.13;;;2.55;;
63005;SDS011;53704;52.532;6.426;2022-10-16T00:21:08;4.95;;;2.13;;
63005;SDS011;53704;52.532;6.426;2022-10-16T00:23:39;7.10;;;2.45;;
63005;SDS011;53704;52.532;6.426;2022-10-16T00:26:06;8.15;;;2.60;;
63005;SDS011;53704;52.532;6.426;2022-10-16T00:28:33;7.55;;;3.00;;
63005;SDS011;53704;52.532;6.426;2022-10-16T00:30:58;14.70;;;2.90;;
63005;SDS011;53704;52.532;6.426;2022-10-16T00:33:27;6.53;;;2.70;;
63005;SDS011;53704;52.532;6.426;2022-10-16T00:35:52;4.35;;;2.60;;
63005;SDS011;53704;52.532;6.426;2022-10-16T00:38:17;9.40;;;2.92;;
63005;SDS011;53704;52.532;6.426;2022-10-16T00:40:43;6.97;;;2.80;;
63005;SDS011;53704;52.532;6.426;2022-10-16T00:43:32;3.72;;;2.53;;
63005;SDS011;53704;52.532;6.426;2022-10-16T00:45:58;20.05;;;3.65;;
63005;SDS011;53704;52.532;6.426;2022-10-16T00:48:28;7.88;;;2.90;;
63005;SDS011;53704;52.532;6.426;2022-10-16T00:50:54;7.78;;;3.05;;
63005;SDS011;53704;52.532;6.426;2022-10-16T00:53:21;8.80;;;3.42;;
63005;SDS011;53704;52.532;6.426;2022-10-16T00:55:48;12.98;;;3.13;;
63005;SDS011;53704;52.532;6.426;2022-10-16T00:58:13;10.55;;;4.00;;
63005;SDS011;53704;52.532;6.426;2022-10-16T01:00:39;7.88;;;3.15;;
63005;SDS011;53704;52.532;6.426;2022-10-16T01:03:49;8.27;;;2.97;;
63005;SDS011;53704;52.532;6.426;2022-10-16T01:08:53;9.13;;;3.20;;
63005;SDS011;53704;52.532;6.426;2022-10-16T01:14:06;8.23;;;3.30;;
63005;SDS011;53704;52.532;6.426;2022-10-16T01:17:12;15.43;;;3.50;;
63005;SDS011;53704;52.532;6.426;2022-10-16T01:19:50;10.07;;;2.70;;
63005;SDS011;53704;52.532;6.426;2022-10-16T01:22:17;4.80;;;2.95;;
63005;SDS011;53704;52.532;6.426;2022-10-16T01:24:49;8.60;;;3.38;;
63005;SDS011;53704;52.532;6.426;2022-10-16T01:27:22;16.02;;;3.78;;
63005;SDS011;53704;52.532;6.426;2022-10-16T01:38:03;3.35;;;2.88;;
63005;SDS011;53704;52.532;6.426;2022-10-16T01:40:33;10.07;;;3.33;;
63005;SDS011;53704;52.532;6.426;2022-10-16T01:43:05;8.93;;;3.38;;
63005;SDS011;53704;52.532;6.426;2022-10-16T01:45:33;11.07;;;3.58;;
63005;SDS011;53704;52.532;6.426;2022-10-16T01:48:00;14.98;;;3.33;;
63005;SDS011;53704;52.532;6.426;2022-10-16T01:50:31;8.55;;;3.38;;
63005;SDS011;53704;52.532;6.426;2022-10-16T01:52:59;5.70;;;3.13;;
63005;SDS011;53704;52.532;6.426;2022-10-16T01:55:29;7.53;;;3.42;;
63005;SDS011;53704;52.532;6.426;2022-10-16T01:57:58;7.38;;;2.95;;
63005;SDS011;53704;52.532;6.426;2022-10-16T02:00:26;8.70;;;3.10;;
63005;SDS011;53704;52.532;6.426;2022-10-16T02:02:53;13.68;;;3.65;;
63005;SDS011;53704;52.532;6.426;2022-10-16T02:05:25;4.80;;;2.70;;
63005;SDS011;53704;52.532;6.426;2022-10-16T02:07:52;9.27;;;3.20;;
63005;SDS011;53704;52.532;6.426;2022-10-16T02:10:17;3.35;;;2.80;;
63005;SDS011;53704;52.532;6.426;2022-10-16T02:13:06;9.85;;;2.95;;
63005;SDS011;53704;52.532;6.426;2022-10-16T02:15:37;5.45;;;3.55;;
63005;SDS011;53704;52.532;6.426;2022-10-16T02:18:06;4.10;;;2.78;;
63005;SDS011;53704;52.532;6.426;2022-10-16T02:20:34;4.75;;;3.42;;
63005;SDS011;53704;52.532;6.426;2022-10-16T02:23:27;8.27;;;3.38;;
63005;SDS011;53704;52.532;6.426;2022-10-16T02:26:00;3.65;;;3.10;;
63005;SDS011;53704;52.532;6.426;2022-10-16T02:28:36;12.15;;;3.40;;
63005;SDS011;53704;52.532;6.426;2022-10-16T02:31:08;8.07;;;2.88;;
63005;SDS011;53704;52.532;6.426;2022-10-16T02:33:36;6.40;;;3.25;;
63005;SDS011;53704;52.532;6.426;2022-10-16T02:36:05;7.50;;;3.33;;
63005;SDS011;53704;52.532;6.426;2022-10-16T02:38:31;11.55;;;3.42;;
63005;SDS011;53704;52.532;6.426;2022-10-16T02:40:57;5.70;;;3.67;;
63005;SDS011;53704;52.532;6.426;2022-10-16T02:43:22;6.10;;;3.58;;
63005;SDS011;53704;52.532;6.426;2022-10-16T02:45:49;7.78;;;3.20;;
63005;SDS011;53704;52.532;6.426;2022-10-16T02:48:15;9.38;;;3.85;;
63005;SDS011;53704;52.532;6.426;2022-10-16T02:50:40;7.35;;;3.47;;
63005;SDS011;53704;52.532;6.426;2022-10-16T02:53:05;13.00;;;3.65;;
63005;SDS011;53704;52.532;6.426;2022-10-16T02:55:31;10.15;;;3.60;;
63005;SDS011;53704;52.532;6.426;2022-10-16T02:57:57;5.05;;;3.58;;
63005;SDS011;53704;52.532;6.426;2022-10-16T03:00:22;6.30;;;3.50;;
63005;SDS011;53704;52.532;6.426;2022-10-16T03:02:48;4.57;;;3.35;;
63005;SDS011;53704;52.532;6.426;2022-10-16T03:05:13;10.65;;;3.78;;
63005;SDS011;53704;52.532;6.426;2022-10-16T03:07:39;5.40;;;3.97;;
63005;SDS011;53704;52.532;6.426;2022-10-16T03:10:05;4.97;;;3.60;;
63005;SDS011;53704;52.532;6.426;2022-10-16T03:12:30;6.18;;;3.78;;
63005;SDS011;53704;52.532;6.426;2022-10-16T03:14:56;6.95;;;4.00;;
63005;SDS011;53704;52.532;6.426;2022-10-16T03:17:22;11.75;;;3.90;;
63005;SDS011;53704;52.532;6.426;2022-10-16T03:19:47;5.80;;;3.38;;
63005;SDS011;53704;52.532;6.426;2022-10-16T03:22:13;6.40;;;4.20;;
63005;SDS011;53704;52.532;6.426;2022-10-16T03:24:38;6.43;;;3.95;;
63005;SDS011;53704;52.532;6.426;2022-10-16T03:27:04;8.00;;;3.97;;
63005;SDS011;53704;52.532;6.426;2022-10-16T03:29:29;16.08;;;3.67;;
63005;SDS011;53704;52.532;6.426;2022-10-16T03:31:55;13.20;;;4.00;;
63005;SDS011;53704;52.532;6.426;2022-10-16T03:34:21;8.43;;;4.43;;
63005;SDS011;53704;52.532;6.426;2022-10-16T03:36:47;6.35;;;3.30;;
63005;SDS011;53704;52.532;6.426;2022-10-16T03:39:12;3.95;;;3.35;;
63005;SDS011;53704;52.532;6.426;2022-10-16T03:41:38;6.25;;;3.70;;
63005;SDS011;53704;52.532;6.426;2022-10-16T03:44:03;8.05;;;4.28;;
63005;SDS011;53704;52.532;6.426;2022-10-16T03:46:29;12.90;;;3.92;;
63005;SDS011;53704;52.532;6.426;2022-10-16T03:48:54;6.18;;;3.63;;
63005;SDS011;53704;52.532;6.426;2022-10-16T03:51:20;14.18;;;4.32;;
63005;SDS011;53704;52.532;6.426;2022-10-16T03:53:45;3.53;;;3.30;;
63005;SDS011;53704;52.532;6.426;2022-10-16T03:56:11;6.85;;;3.88;;
63005;SDS011;53704;52.532;6.426;2022-10-16T03:58:36;6.57;;;3.72;;
63005;SDS011;53704;52.532;6.426;2022-10-16T04:01:02;4.15;;;3.78;;
63005;SDS011;53704;52.532;6.426;2022-10-16T04:03:27;3.95;;;3.60;;
63005;SDS011;53704;52.532;6.426;2022-10-16T04:05:53;6.72;;;3.33;;
63005;SDS011;53704;52.532;6.426;2022-10-16T04:08:19;5.20;;;3.60;;
63005;SDS011;53704;52.532;6.426;2022-10-16T04:10:44;8.32;;;3.42;;
63005;SDS011;53704;52.532;6.426;2022-10-16T04:13:10;7.07;;;3.95;;
63005;SDS011;53704;52.532;6.426;2022-10-16T04:15:36;5.43;;;4.18;;
63005;SDS011;53704;52.532;6.426;2022-10-16T04:18:01;5.63;;;3.50;;
63005;SDS011;53704;52.532;6.426;2022-10-16T04:20:27;8.93;;;3.95;;
63005;SDS011;53704;52.532;6.426;2022-10-16T04:22:52;3.85;;;3.45;;
63005;SDS011;53704;52.532;6.426;2022-10-16T04:25:18;6.55;;;3.38;;
63005;SDS011;53704;52.532;6.426;2022-10-16T04:27:43;4.93;;;3.15;;
63005;SDS011;53704;52.532;6.426;2022-10-16T04:30:08;8.48;;;3.50;;
63005;SDS011;53704;52.532;6.426;2022-10-16T04:32:34;3.45;;;3.15;;
63005;SDS011;53704;52.532;6.426;2022-10-16T04:35:00;4.72;;;3.20;;
63005;SDS011;53704;52.532;6.426;2022-10-16T04:37:25;4.13;;;3.45;;
63005;SDS011;53704;52.532;6.426;2022-10-16T04:39:52;7.55;;;3.42;;
63005;SDS011;53704;52.532;6.426;2022-10-16T04:42:18;4.85;;;3.75;;
63005;SDS011;53704;52.532;6.426;2022-10-16T04:44:44;3.78;;;3.47;;
63005;SDS011;53704;52.532;6.426;2022-10-16T04:47:09;6.82;;;3.58;;
63005;SDS011;53704;52.532;6.426;2022-10-16T04:49:35;7.45;;;3.05;;
63005;SDS011;53704;52.532;6.426;2022-10-16T04:52:00;8.32;;;3.70;;
63005;SDS011;53704;52.532;6.426;2022-10-16T04:54:26;3.80;;;3.10;;
63005;SDS011;53704;52.532;6.426;2022-10-16T04:56:51;7.25;;;3.67;;
63005;SDS011;53704;52.532;6.426;2022-10-16T04:59:18;9.15;;;3.35;;
63005;SDS011;53704;52.532;6.426;2022-10-16T05:01:44;3.70;;;3.40;;
63005;SDS011;53704;52.532;6.426;2022-10-16T05:04:09;5.15;;;3.45;;
63005;SDS011;53704;52.532;6.426;2022-10-16T05:06:35;7.25;;;3.35;;
63005;SDS011;53704;52.532;6.426;2022-10-16T05:09:01;6.38;;;3.30;;
63005;SDS011;53704;52.532;6.426;2022-10-16T05:11:27;7.10;;;4.07;;
63005;SDS011;53704;52.532;6.426;2022-10-16T05:13:53;4.47;;;3.20;;
63005;SDS011;53704;52.532;6.426;2022-10-16T05:16:18;11.13;;;3.53;;
63005;SDS011;53704;52.532;6.426;2022-10-16T05:18:44;3.42;;;3.08;;
63005;SDS011;53704;52.532;6.426;2022-10-16T05:21:09;9.35;;;3.08;;
63005;SDS011;53704;52.532;6.426;2022-10-16T05:23:34;3.83;;;3.45;;
63005;SDS011;53704;52.532;6.426;2022-10-16T05:26:00;3.88;;;3.25;;
63005;SDS011;53704;52.532;6.426;2022-10-16T05:28:26;7.97;;;3.35;;
63005;SDS011;53704;52.532;6.426;2022-10-16T05:30:55;6.72;;;2.90;;
63005;SDS011;53704;52.532;6.426;2022-10-16T05:33:21;3.92;;;3.10;;
63005;SDS011;53704;52.532;6.426;2022-10-16T05:35:48;8.00;;;3.15;;
63005;SDS011;53704;52.532;6.426;2022-10-16T05:38:14;10.55;;;2.97;;
63005;SDS011;53704;52.532;6.426;2022-10-16T05:40:40;4.60;;;2.78;;
63005;SDS011;53704;52.532;6.426;2022-10-16T05:43:06;8.15;;;2.90;;
63005;SDS011;53704;52.532;6.426;2022-10-16T05:45:31;3.97;;;2.92;;
63005;SDS011;53704;52.532;6.426;2022-10-16T05:47:57;3.50;;;3.20;;
63005;SDS011;53704;52.532;6.426;2022-10-16T05:50:22;5.20;;;2.60;;
63005;SDS011;53704;52.532;6.426;2022-10-16T05:52:48;4.78;;;2.78;;
63005;SDS011;53704;52.532;6.426;2022-10-16T05:55:13;2.83;;;2.58;;
63005;SDS011;53704;52.532;6.426;2022-10-16T05:57:38;10.52;;;2.70;;
63005;SDS011;53704;52.532;6.426;2022-10-16T06:00:04;8.25;;;2.47;;
63005;SDS011;53704;52.532;6.426;2022-10-16T06:02:30;4.90;;;3.63;;
63005;SDS011;53704;52.532;6.426;2022-10-16T06:04:55;2.75;;;2.55;;
63005;SDS011;53704;52.532;6.426;2022-10-16T06:07:21;9.10;;;2.80;;
63005;SDS011;53704;52.532;6.426;2022-10-16T06:09:48;7.60;;;2.58;;
63005;SDS011;53704;52.532;6.426;2022-10-16T06:12:14;4.53;;;2.53;;
63005;SDS011;53704;52.532;6.426;2022-10-16T06:14:40;5.65;;;2.70;;
63005;SDS011;53704;52.532;6.426;2022-10-16T06:17:05;2.63;;;2.35;;
63005;SDS011;53704;52.532;6.426;2022-10-16T06:19:31;2.85;;;2.42;;
63005;SDS011;53704;52.532;6.426;2022-10-16T06:21:56;9.48;;;2.55;;
63005;SDS011;53704;52.532;6.426;2022-10-16T06:24:23;4.15;;;2.60;;
63005;SDS011;53704;52.532;6.426;2022-10-16T06:26:49;6.70;;;2.38;;
63005;SDS011;53704;52.532;6.426;2022-10-16T06:29:14;2.97;;;2.25;;
63005;SDS011;53704;52.532;6.426;2022-10-16T06:31:39;2.45;;;2.25;;
63005;SDS011;53704;52.532;6.426;2022-10-16T06:34:05;5.22;;;2.17;;
63005;SDS011;53704;52.532;6.426;2022-10-16T06:36:34;5.35;;;2.42;;
63005;SDS011;53704;52.532;6.426;2022-10-16T06:38:59;5.43;;;2.50;;
63005;SDS011;53704;52.532;6.426;2022-10-16T06:41:25;8.00;;;2.28;;
63005;SDS011;53704;52.532;6.426;2022-10-16T06:43:50;2.15;;;2.05;;
63005;SDS011;53704;52.532;6.426;2022-10-16T06:46:18;4.45;;;2.42;;
63005;SDS011;53704;52.532;6.426;2022-10-16T06:48:45;8.32;;;2.70;;
63005;SDS011;53704;52.532;6.426;2022-10-16T06:51:12;3.88;;;2.50;;
63005;SDS011;53704;52.532;6.426;2022-10-16T06:53:40;6.47;;;3.10;;
63005;SDS011;53704;52.532;6.426;2022-10-16T06:56:21;5.57;;;2.50;;
63005;SDS011;53704;52.532;6.426;2022-10-16T06:58:48;7.07;;;2.75;;
63005;SDS011;53704;52.532;6.426;2022-10-16T07:01:15;4.47;;;2.65;;
63005;SDS011;53704;52.532;6.426;2022-10-16T07:03:42;9.05;;;3.83;;
63005;SDS011;53704;52.532;6.426;2022-10-16T07:06:10;7.28;;;2.38;;
63005;SDS011;53704;52.532;6.426;2022-10-16T07:08:38;6.45;;;2.63;;
63005;SDS011;53704;52.532;6.426;2022-10-16T07:11:06;3.90;;;2.42;;
63005;SDS011;53704;52.532;6.426;2022-10-16T07:13:34;2.88;;;2.63;;
63005;SDS011;53704;52.532;6.426;2022-10-16T07:16:10;7.40;;;2.65;;
63005;SDS011;53704;52.532;6.426;2022-10-16T07:18:41;4.13;;;2.30;;
63005;SDS011;53704;52.532;6.426;2022-10-16T07:23:36;14.27;;;3.38;;
63005;SDS011;53704;52.532;6.426;2022-10-16T07:26:02;3.05;;;2.72;;
63005;SDS011;53704;52.532;6.426;2022-10-16T07:28:28;3.67;;;2.15;;
63005;SDS011;53704;52.532;6.426;2022-10-16T07:30:55;6.88;;;2.20;;
63005;SDS011;53704;52.532;6.426;2022-10-16T07:33:20;8.82;;;3.03;;
63005;SDS011;53704;52.532;6.426;2022-10-16T07:35:48;11.50;;;2.63;;
63005;SDS011;53704;52.532;6.426;2022-10-16T07:38:17;11.10;;;2.90;;
63005;SDS011;53704;52.532;6.426;2022-10-16T07:40:43;6.10;;;3.17;;
63005;SDS011;53704;52.532;6.426;2022-10-16T07:43:08;3.67;;;2.83;;
63005;SDS011;53704;52.532;6.426;2022-10-16T07:45:34;9.65;;;3.53;;
63005;SDS011;53704;52.532;6.426;2022-10-16T07:47:59;10.40;;;2.83;;
63005;SDS011;53704;52.532;6.426;2022-10-16T07:50:25;7.63;;;2.65;;
63005;SDS011;53704;52.532;6.426;2022-10-16T07:52:50;4.55;;;3.20;;
63005;SDS011;53704;52.532;6.426;2022-10-16T07:55:15;4.32;;;3.03;;
63005;SDS011;53704;52.532;6.426;2022-10-16T07:57:41;9.10;;;3.80;;
63005;SDS011;53704;52.532;6.426;2022-10-16T08:00:06;5.78;;;2.80;;
63005;SDS011;53704;52.532;6.426;2022-10-16T08:02:32;4.72;;;3.35;;
63005;SDS011;53704;52.532;6.426;2022-10-16T08:04:58;4.97;;;2.42;;
63005;SDS011;53704;52.532;6.426;2022-10-16T08:07:23;3.58;;;2.97;;
63005;SDS011;53704;52.532;6.426;2022-10-16T08:09:49;7.28;;;2.67;;
63005;SDS011;53704;52.532;6.426;2022-10-16T08:12:16;8.82;;;3.33;;
63005;SDS011;53704;52.532;6.426;2022-10-16T08:14:42;6.25;;;2.70;;
63005;SDS011;53704;52.532;6.426;2022-10-16T08:17:07;7.82;;;2.78;;
63005;SDS011;53704;52.532;6.426;2022-10-16T08:19:33;8.82;;;3.28;;
63005;SDS011;53704;52.532;6.426;2022-10-16T08:21:59;8.65;;;2.55;;
63005;SDS011;53704;52.532;6.426;2022-10-16T08:24:25;5.07;;;2.50;;
63005;SDS011;53704;52.532;6.426;2022-10-16T08:26:53;4.03;;;2.38;;
63005;SDS011;53704;52.532;6.426;2022-10-16T08:29:19;4.03;;;2.20;;
63005;SDS011;53704;52.532;6.426;2022-10-16T08:31:44;7.13;;;2.28;;
63005;SDS011;53704;52.532;6.426;2022-10-16T08:34:09;2.47;;;2.25;;
63005;SDS011;53704;52.532;6.426;2022-10-16T08:36:35;7.70;;;1.88;;
63005;SDS011;53704;52.532;6.426;2022-10-16T08:39:00;8.88;;;2.45;;
63005;SDS011;53704;52.532;6.426;2022-10-16T08:41:30;6.15;;;1.90;;
63005;SDS011;53704;52.532;6.426;2022-10-16T08:50:17;3.88;;;1.50;;
63005;SDS011;53704;52.532;6.426;2022-10-16T08:52:48;5.15;;;1.55;;
63005;SDS011;53704;52.532;6.426;2022-10-16T08:56:00;3.97;;;2.00;;
63005;SDS011;53704;52.532;6.426;2022-10-16T08:58:11;5.90;;;1.70;;
63005;SDS011;53704;52.532;6.426;2022-10-16T09:00:39;4.43;;;1.50;;
63005;SDS011;53704;52.532;6.426;2022-10-16T09:11:43;2.00;;;1.33;;
63005;SDS011;53704;52.532;6.426;2022-10-16T09:17:18;3.08;;;1.10;;
63005;SDS011;53704;52.532;6.426;2022-10-16T09:20:18;9.00;;;1.77;;
63005;SDS011;53704;52.532;6.426;2022-10-16T09:23:25;7.10;;;1.90;;
63005;SDS011;53704;52.532;6.426;2022-10-16T09:25:51;5.53;;;1.50;;
63005;SDS011;53704;52.532;6.426;2022-10-16T09:28:18;3.05;;;1.65;;
63005;SDS011;53704;52.532;6.426;2022-10-16T09:30:44;6.78;;;1.98;;
63005;SDS011;53704;52.532;6.426;2022-10-16T09:33:11;13.35;;;2.20;;
63005;SDS011;53704;52.532;6.426;2022-10-16T09:38:05;5.45;;;1.73;;
63005;SDS011;53704;52.532;6.426;2022-10-16T09:40:32;4.28;;;1.40;;
63005;SDS011;53704;52.532;6.426;2022-10-16T09:46:04;14.05;;;2.05;;
63005;SDS011;53704;52.532;6.426;2022-10-16T09:48:39;5.25;;;1.60;;
63005;SDS011;53704;52.532;6.426;2022-10-16T09:51:20;12.38;;;2.00;;
63005;SDS011;53704;52.532;6.426;2022-10-16T09:53:46;11.23;;;1.80;;
63005;SDS011;53704;52.532;6.426;2022-10-16T09:56:21;17.02;;;3.05;;
63005;SDS011;53704;52.532;6.426;2022-10-16T09:58:53;9.73;;;2.05;;
63005;SDS011;53704;52.532;6.426;2022-10-16T10:01:20;10.70;;;1.90;;
63005;SDS011;53704;52.532;6.426;2022-10-16T10:03:49;11.15;;;2.35;;
63005;SDS011;53704;52.532;6.426;2022-10-16T10:09:47;14.90;;;3.75;;
63005;SDS011;53704;52.532;6.426;2022-10-16T10:11:48;11.77;;;2.40;;
63005;SDS011;53704;52.532;6.426;2022-10-16T10:14:18;13.90;;;2.28;;
63005;SDS011;53704;52.532;6.426;2022-10-16T10:16:52;17.75;;;2.53;;
63005;SDS011;53704;52.532;6.426;2022-10-16T10:22:17;10.20;;;2.25;;
63005;SDS011;53704;52.532;6.426;2022-10-16T10:27:23;15.30;;;2.67;;
63005;SDS011;53704;52.532;6.426;2022-10-16T10:33:05;9.80;;;2.83;;
63005;SDS011;53704;52.532;6.426;2022-10-16T10:35:37;13.20;;;2.42;;
63005;SDS011;53704;52.532;6.426;2022-10-16T10:38:13;10.73;;;2.83;;
63005;SDS011;53704;52.532;6.426;2022-10-16T10:41:09;8.88;;;2.20;;
63005;SDS011;53704;52.532;6.426;2022-10-16T10:44:01;8.43;;;2.03;;
63005;SDS011;53704;52.532;6.426;2022-10-16T10:46:55;5.35;;;1.98;;
63005;SDS011;53704;52.532;6.426;2022-10-16T10:49:31;13.18;;;2.38;;
63005;SDS011;53704;52.532;6.426;2022-10-16T10:52:26;10.52;;;2.53;;
63005;SDS011;53704;52.532;6.426;2022-10-16T10:54:56;11.55;;;2.85;;
63005;SDS011;53704;52.532;6.426;2022-10-16T10:57:32;7.50;;;2.03;;
63005;SDS011;53704;52.532;6.426;2022-10-16T11:00:13;16.88;;;2.13;;
63005;SDS011;53704;52.532;6.426;2022-10-16T11:10:52;14.57;;;2.90;;
63005;SDS011;53704;52.532;6.426;2022-10-16T11:16:16;9.65;;;2.60;;
63005;SDS011;53704;52.532;6.426;2022-10-16T11:18:54;9.10;;;2.85;;
63005;SDS011;53704;52.532;6.426;2022-10-16T11:21:25;10.18;;;2.75;;
63005;SDS011;53704;52.532;6.426;2022-10-16T11:23:59;14.20;;;2.58;;
63005;SDS011;53704;52.532;6.426;2022-10-16T11:26:28;8.95;;;2.08;;
63005;SDS011;53704;52.532;6.426;2022-10-16T11:28:59;6.35;;;2.22;;
63005;SDS011;53704;52.532;6.426;2022-10-16T11:31:39;15.25;;;3.05;;
63005;SDS011;53704;52.532;6.426;2022-10-16T11:36:51;20.13;;;3.47;;
63005;SDS011;53704;52.532;6.426;2022-10-16T11:39:32;15.10;;;2.28;;
63005;SDS011;53704;52.532;6.426;2022-10-16T11:42:07;20.58;;;2.25;;
63005;SDS011;53704;52.532;6.426;2022-10-16T11:50:39;10.60;;;2.33;;
63005;SDS011;53704;52.532;6.426;2022-10-16T11:53:14;11.63;;;2.53;;
63005;SDS011;53704;52.532;6.426;2022-10-16T11:55:42;17.83;;;2.72;;
63005;SDS011;53704;52.532;6.426;2022-10-16T11:58:28;17.98;;;3.28;;
63005;SDS011;53704;52.532;6.426;2022-10-16T12:06:30;10.82;;;2.40;;
63005;SDS011;53704;52.532;6.426;2022-10-16T12:09:00;10.02;;;2.00;;
63005;SDS011;53704;52.532;6.426;2022-10-16T12:14:16;9.23;;;2.25;;
63005;SDS011;53704;52.532;6.426;2022-10-16T12:16:58;8.80;;;2.10;;
63005;SDS011;53704;52.532;6.426;2022-10-16T12:19:25;8.02;;;2.45;;
63005;SDS011;53704;52.532;6.426;2022-10-16T12:21:54;12.10;;;2.33;;
63005;SDS011;53704;52.532;6.426;2022-10-16T12:27:00;11.18;;;2.75;;
63005;SDS011;53704;52.532;6.426;2022-10-16T12:29:33;12.82;;;2.35;;
63005;SDS011;53704;52.532;6.426;2022-10-16T12:35:04;8.15;;;3.03;;
63005;SDS011;53704;52.532;6.426;2022-10-16T12:37:42;11.45;;;2.10;;
63005;SDS011;53704;52.532;6.426;2022-10-16T12:40:41;13.82;;;2.17;;
63005;SDS011;53704;52.532;6.426;2022-10-16T12:45:45;9.38;;;2.30;;
63005;SDS011;53704;52.532;6.426;2022-10-16T12:48:21;8.50;;;2.08;;
63005;SDS011;53704;52.532;6.426;2022-10-16T12:50:47;9.40;;;1.42;;
63005;SDS011;53704;52.532;6.426;2022-10-16T12:53:20;9.80;;;2.55;;
63005;SDS011;53704;52.532;6.426;2022-10-16T12:55:52;12.15;;;2.50;;
63005;SDS011;53704;52.532;6.426;2022-10-16T13:01:29;6.63;;;2.10;;
63005;SDS011;53704;52.532;6.426;2022-10-16T13:04:05;10.73;;;2.67;;
63005;SDS011;53704;52.532;6.426;2022-10-16T13:06:46;15.75;;;2.50;;
63005;SDS011;53704;52.532;6.426;2022-10-16T13:23:17;6.90;;;2.17;;
63005;SDS011;53704;52.532;6.426;2022-10-16T13:29:05;9.65;;;2.13;;
63005;SDS011;53704;52.532;6.426;2022-10-16T13:31:30;4.65;;;1.83;;
63005;SDS011;53704;52.532;6.426;2022-10-16T13:33:58;6.03;;;2.08;;
63005;SDS011;53704;52.532;6.426;2022-10-16T13:38:59;9.25;;;2.13;;
63005;SDS011;53704;52.532;6.426;2022-10-16T13:41:31;10.90;;;3.30;;
63005;SDS011;53704;52.532;6.426;2022-10-16T13:43:57;6.30;;;2.20;;
63005;SDS011;53704;52.532;6.426;2022-10-16T13:46:23;22.33;;;2.65;;
63005;SDS011;53704;52.532;6.426;2022-10-16T13:49:00;9.45;;;2.17;;
63005;SDS011;53704;52.532;6.426;2022-10-16T13:51:26;12.20;;;2.58;;
63005;SDS011;53704;52.532;6.426;2022-10-16T13:53:54;13.15;;;2.55;;
63005;SDS011;53704;52.532;6.426;2022-10-16T13:56:20;12.18;;;2.17;;
63005;SDS011;53704;52.532;6.426;2022-10-16T13:59:07;9.50;;;2.42;;
63005;SDS011;53704;52.532;6.426;2022-10-16T14:01:48;14.45;;;2.25;;
63005;SDS011;53704;52.532;6.426;2022-10-16T14:04:16;11.88;;;3.28;;
63005;SDS011;53704;52.532;6.426;2022-10-16T14:06:43;11.23;;;4.68;;
63005;SDS011;53704;52.532;6.426;2022-10-16T14:09:22;11.60;;;2.45;;
63005;SDS011;53704;52.532;6.426;2022-10-16T14:11:52;10.43;;;2.08;;
63005;SDS011;53704;52.532;6.426;2022-10-16T14:14:20;8.15;;;2.03;;
63005;SDS011;53704;52.532;6.426;2022-10-16T14:16:47;12.57;;;1.73;;
63005;SDS011;53704;52.532;6.426;2022-10-16T14:19:15;13.75;;;2.45;;
63005;SDS011;53704;52.532;6.426;2022-10-16T14:21:42;9.02;;;2.17;;
63005;SDS011;53704;52.532;6.426;2022-10-16T14:24:11;6.82;;;2.10;;
63005;SDS011;53704;52.532;6.426;2022-10-16T14:26:49;8.75;;;2.42;;
63005;SDS011;53704;52.532;6.426;2022-10-16T14:29:18;10.20;;;2.42;;
63005;SDS011;53704;52.532;6.426;2022-10-16T14:31:54;7.15;;;2.10;;
63005;SDS011;53704;52.532;6.426;2022-10-16T14:34:31;10.20;;;2.10;;
63005;SDS011;53704;52.532;6.426;2022-10-16T14:37:05;6.28;;;1.95;;
63005;SDS011;53704;52.532;6.426;2022-10-16T14:39:35;10.32;;;2.30;;
63005;SDS011;53704;52.532;6.426;2022-10-16T14:42:01;10.85;;;2.08;;
63005;SDS011;53704;52.532;6.426;2022-10-16T14:44:31;11.75;;;2.10;;
63005;SDS011;53704;52.532;6.426;2022-10-16T14:46:58;10.25;;;2.25;;
63005;SDS011;53704;52.532;6.426;2022-10-16T14:49:32;9.23;;;2.25;;
63005;SDS011;53704;52.532;6.426;2022-10-16T14:51:58;6.47;;;2.20;;
63005;SDS011;53704;52.532;6.426;2022-10-16T14:54:23;13.30;;;2.35;;
63005;SDS011;53704;52.532;6.426;2022-10-16T14:56:55;17.13;;;2.28;;
63005;SDS011;53704;52.532;6.426;2022-10-16T14:59:33;10.73;;;1.90;;
63005;SDS011;53704;52.532;6.426;2022-10-16T15:02:02;12.40;;;2.28;;
63005;SDS011;53704;52.532;6.426;2022-10-16T15:04:41;10.18;;;2.35;;
63005;SDS011;53704;52.532;6.426;2022-10-16T15:07:07;9.43;;;1.88;;
63005;SDS011;53704;52.532;6.426;2022-10-16T15:09:32;12.98;;;2.33;;
63005;SDS011;53704;52.532;6.426;2022-10-16T15:11:58;13.73;;;2.30;;
63005;SDS011;53704;52.532;6.426;2022-10-16T15:14:23;7.70;;;2.05;;
63005;SDS011;53704;52.532;6.426;2022-10-16T15:16:49;23.48;;;2.50;;
63005;SDS011;53704;52.532;6.426;2022-10-16T15:19:14;14.85;;;2.33;;
63005;SDS011;53704;52.532;6.426;2022-10-16T15:21:39;9.30;;;2.20;;
63005;SDS011;53704;52.532;6.426;2022-10-16T15:24:08;7.80;;;1.70;;
63005;SDS011;53704;52.532;6.426;2022-10-16T15:26:37;7.93;;;2.20;;
63005;SDS011;53704;52.532;6.426;2022-10-16T15:29:02;14.18;;;2.13;;
63005;SDS011;53704;52.532;6.426;2022-10-16T15:31:28;14.85;;;2.10;;
63005;SDS011;53704;52.532;6.426;2022-10-16T15:33:53;13.73;;;2.40;;
63005;SDS011;53704;52.532;6.426;2022-10-16T15:36:30;7.82;;;1.88;;
63005;SDS011;53704;52.532;6.426;2022-10-16T15:39:01;8.48;;;2.03;;
63005;SDS011;53704;52.532;6.426;2022-10-16T15:41:44;8.73;;;2.38;;
63005;SDS011;53704;52.532;6.426;2022-10-16T15:44:15;7.20;;;2.30;;
63005;SDS011;53704;52.532;6.426;2022-10-16T15:46:41;12.52;;;2.25;;
63005;SDS011;53704;52.532;6.426;2022-10-16T15:49:07;9.73;;;2.58;;
63005;SDS011;53704;52.532;6.426;2022-10-16T15:51:34;16.33;;;2.55;;
63005;SDS011;53704;52.532;6.426;2022-10-16T15:54:03;15.35;;;2.50;;
63005;SDS011;53704;52.532;6.426;2022-10-16T15:56:28;6.70;;;2.08;;
63005;SDS011;53704;52.532;6.426;2022-10-16T15:58:54;16.92;;;2.20;;
63005;SDS011;53704;52.532;6.426;2022-10-16T16:01:20;10.48;;;2.38;;
63005;SDS011;53704;52.532;6.426;2022-10-16T16:03:46;12.70;;;2.60;;
63005;SDS011;53704;52.532;6.426;2022-10-16T16:06:12;11.90;;;2.58;;
63005;SDS011;53704;52.532;6.426;2022-10-16T16:08:39;11.43;;;3.17;;
63005;SDS011;53704;52.532;6.426;2022-10-16T16:11:09;8.68;;;2.80;;
63005;SDS011;53704;52.532;6.426;2022-10-16T16:13:36;14.15;;;2.58;;
63005;SDS011;53704;52.532;6.426;2022-10-16T16:16:08;17.05;;;2.72;;
63005;SDS011;53704;52.532;6.426;2022-10-16T16:18:36;10.80;;;2.08;;
63005;SDS011;53704;52.532;6.426;2022-10-16T16:21:01;11.90;;;2.20;;
63005;SDS011;53704;52.532;6.426;2022-10-16T16:23:27;14.20;;;2.80;;
63005;SDS011;53704;52.532;6.426;2022-10-16T16:28:59;7.95;;;2.05;;
63005;SDS011;53704;52.532;6.426;2022-10-16T16:31:24;13.40;;;2.65;;
63005;SDS011;53704;52.532;6.426;2022-10-16T16:33:52;13.52;;;3.38;;
63005;SDS011;53704;52.532;6.426;2022-10-16T16:36:18;15.18;;;2.97;;
63005;SDS011;53704;52.532;6.426;2022-10-16T16:38:44;9.48;;;2.38;;
63005;SDS011;53704;52.532;6.426;2022-10-16T16:41:14;12.88;;;2.53;;
63005;SDS011;53704;52.532;6.426;2022-10-16T16:43:43;13.05;;;2.60;;
63005;SDS011;53704;52.532;6.426;2022-10-16T16:46:09;9.50;;;2.35;;
63005;SDS011;53704;52.532;6.426;2022-10-16T16:48:34;12.13;;;2.92;;